This is the latest recevied weather packets stored in our database for station/object ALANSN-2. If no packets are shown the sender has not sent any weather packets the latest 10 day(s).
| Time | Temp. | Humidity | Pressure | Rain* | Wind** | Luminosity | Snow |
|---|---|---|---|---|---|---|---|
| 1777775402 | 0.56° C | 80% | 1020.6 hPa | 0 mm | - | 0 W/m² | - |
| 1777775102 | 1.11° C | 79% | 1020.6 hPa | 0 mm | - | 0 W/m² | - |
| 1777773602 | 2.78° C | 72% | 1020.6 hPa | 0 mm | - | 0 W/m² | - |
| 1777767302 | 7.78° C | 51% | 1019.8 hPa | 0 mm | - | 16 W/m² | - |
| 1777760703 | 8.33° C | 45% | 1020.4 hPa | 0 mm | - | 253 W/m² | - |
| 1777760102 | 8.33° C | 49% | 1020.5 hPa | 0 mm | - | 274 W/m² | - |
| 1777759804 | 8.33° C | 44% | 1020.5 hPa | 0 mm | - | 301 W/m² | - |
| 1777758902 | 8.33° C | 49% | 1020.4 hPa | 0 mm | - | 344 W/m² | - |
| 1777758602 | 7.78° C | 43% | 1020.6 hPa | 0 mm | - | 357 W/m² | - |
| 1777757701 | 7.78° C | 44% | 1020.7 hPa | 0 mm | - | 389 W/m² | - |
| 1777757402 | 7.78° C | 43% | 1020.7 hPa | 0 mm | - | 396 W/m² | - |
| 1777757101 | 7.78° C | 46% | 1020.8 hPa | 0 mm | - | 415 W/m² | - |
| 1777756502 | 7.78° C | 44% | 1020.8 hPa | 0 mm | - | 436 W/m² | - |
| 1777755902 | 7.78° C | 43% | 1020.8 hPa | 0 mm | - | 459 W/m² | - |
| 1777754102 | 7.78° C | 46% | 1021 hPa | 0 mm | - | 524 W/m² | - |
| 1777753202 | 7.22° C | 44% | 1021.4 hPa | 0 mm | - | 542 W/m² | - |
| 1777752901 | 6.67° C | 44% | 1021.5 hPa | 0 mm | - | 535 W/m² | - |
| 1777751402 | 6.67° C | 45% | 1021.8 hPa | 0 mm | - | 569 W/m² | - |
| 1777750501 | 7.22° C | 47% | 1022.3 hPa | 0 mm | - | 595 W/m² | - |
| 1777749302 | 6.67° C | 49% | 1022.6 hPa | 0 mm | - | 621 W/m² | - |
| 1777747202 | 5.56° C | 54% | 1022.7 hPa | 0 mm | - | 614 W/m² | - |
| 1777746902 | 5.56° C | 55% | 1022.8 hPa | 0 mm | - | 615 W/m² | - |
| 1777745701 | 5.56° C | 61% | 1022.9 hPa | 0 mm | - | 637 W/m² | - |
| 1777743902 | 5.56° C | 58% | 1022.5 hPa | 0 mm | - | 626 W/m² | - |
| 1777743302 | 5.56° C | 54% | 1022.9 hPa | 0 mm | - | 612 W/m² | - |
* Rain latest hour (hover to see other rain measurements)
** Current wind speed in m/s (hover to see current wind gust speed)